Time;durP1;ratioP1;P1;durP2;ratioP2;P2;SDS_P1;SDS_P2;PMS_P1;PMS_P2;Temp;Humidity;BMP_temperature;BMP_pressure;BME280_temperature;BME280_humidity;BME280_pressure;Samples;Min_cycle;Max_cycle;Signal;HPM_P1;HPM_P2
2023/01/24 00:02:05;;;;;;;43.97;27.97;;;3.10;99.90;;;;;;10436942;28;20287;-88
2023/01/24 00:07:08;;;;;;;43.43;27.90;;;3.20;99.90;;;;;;10455591;28;20642;-88
2023/01/24 00:12:11;;;;;;;43.43;27.13;;;3.00;99.90;;;;;;10456858;28;20871;-89
2023/01/24 00:17:13;;;;;;;37.57;23.10;;;2.50;99.90;;;;;;10454203;28;20329;-88
2023/01/24 00:22:16;;;;;;;45.97;28.60;;;2.60;99.90;;;;;;10436604;28;20212;-88
2023/01/24 00:27:18;;;;;;;34.13;22.17;;;2.40;99.90;;;;;;10453491;28;20251;-89
2023/01/24 00:32:21;;;;;;;36.87;24.73;;;3.20;99.90;;;;;;10454264;28;20228;-88
2023/01/24 00:37:24;;;;;;;46.40;28.33;;;3.60;99.90;;;;;;10453185;28;20240;-88
2023/01/24 00:42:27;;;;;;;33.23;20.90;;;3.20;99.90;;;;;;10452413;28;20217;-88
2023/01/24 00:47:29;;;;;;;41.03;26.27;;;2.60;99.90;;;;;;10452619;28;20250;-88
2023/01/24 00:52:32;;;;;;;46.20;29.57;;;3.00;99.90;;;;;;10450914;28;20232;-88
2023/01/24 00:57:34;;;;;;;44.43;27.00;;;3.20;99.90;;;;;;10419205;28;20235;-89
2023/01/24 01:02:37;;;;;;;38.63;25.13;;;3.10;99.90;;;;;;10435464;28;20670;-88
2023/01/24 01:07:39;;;;;;;38.97;26.67;;;2.60;99.90;;;;;;10417598;28;20274;-88
2023/01/24 01:12:42;;;;;;;33.17;21.33;;;3.20;99.90;;;;;;10444169;28;20292;-87
2023/01/24 01:17:44;;;;;;;23.13;15.97;;;2.70;99.90;;;;;;10452115;28;20336;-87
2023/01/24 01:22:47;;;;;;;40.00;26.37;;;2.80;99.90;;;;;;10452523;28;20276;-88
2023/01/24 01:27:49;;;;;;;43.13;25.07;;;2.80;99.90;;;;;;10434560;28;20285;-88
2023/01/24 01:32:52;;;;;;;46.37;27.23;;;2.20;99.90;;;;;;10397070;28;20313;-88
2023/01/24 01:37:54;;;;;;;39.60;26.17;;;2.40;99.90;;;;;;10451915;28;20283;-88
2023/01/24 01:42:57;;;;;;;38.13;22.60;;;2.50;99.90;;;;;;10451252;28;20630;-88
2023/01/24 01:48:04;;;;;;;41.00;25.63;;;3.90;99.90;;;;;;10463929;28;20320;-88
2023/01/24 01:53:07;;;;;;;45.10;26.57;;;3.40;99.90;;;;;;10474864;28;20231;-88
2023/01/24 01:58:10;;;;;;;44.83;26.73;;;2.60;99.90;;;;;;10492078;28;20625;-88
2023/01/24 02:08:35;;;;;;;25.47;17.27;;;2.40;99.90;;;;;;10450310;28;20320;-88
2023/01/24 02:13:43;;;;;;;41.13;25.63;;;3.40;99.90;;;;;;10450568;28;20617;-88
2023/01/24 02:18:46;;;;;;;37.07;22.60;;;3.40;99.90;;;;;;10432245;28;20199;-88
2023/01/24 02:24:16;;;;;;;34.80;21.30;;;2.90;99.90;;;;;;10464719;28;20295;-88
2023/01/24 02:29:20;;;;;;;37.57;24.27;;;2.80;99.90;;;;;;10437019;28;20251;-88
2023/01/24 02:34:23;;;;;;;39.30;25.57;;;2.90;99.90;;;;;;10490694;28;20230;-88
2023/01/24 02:39:30;;;;;;;33.73;21.03;;;2.70;99.90;;;;;;10456941;28;20246;-88
2023/01/24 02:44:56;;;;;;;40.23;24.37;;;2.40;99.90;;;;;;10447226;28;20309;-88
2023/01/24 02:50:00;;;;;;;29.77;17.37;;;2.30;99.90;;;;;;10430624;28;20289;-85
2023/01/24 02:55:04;;;;;;;34.70;20.93;;;2.80;99.90;;;;;;10447204;28;20243;-86
2023/01/24 03:00:07;;;;;;;37.67;23.27;;;3.40;99.90;;;;;;10446471;28;20282;-85
2023/01/24 03:05:11;;;;;;;35.93;21.53;;;3.60;99.90;;;;;;10446664;28;20243;-85
2023/01/24 03:10:17;;;;;;;37.43;23.67;;;3.30;99.90;;;;;;10451283;28;20278;-86
2023/01/24 03:36:53;;;;;;;39.70;23.43;;;3.00;99.90;;;;;;10454398;28;20584;-85
2023/01/24 03:41:56;;;;;;;36.00;22.27;;;2.80;99.90;;;;;;10479127;28;20234;-85
2023/01/24 03:46:59;;;;;;;41.27;21.27;;;2.50;99.90;;;;;;10453886;28;20260;-85
2023/01/24 03:57:23;;;;;;;36.97;21.60;;;3.30;99.90;;;;;;10452961;28;20246;-86
2023/01/24 04:02:27;;;;;;;38.30;22.47;;;3.40;99.90;;;;;;10477100;28;20246;-86
2023/01/24 04:07:30;;;;;;;32.83;20.87;;;3.30;99.90;;;;;;10477845;28;20392;-85
2023/01/24 04:12:37;;;;;;;32.40;20.50;;;3.40;99.90;;;;;;10491548;28;20309;-85
2023/01/24 04:17:40;;;;;;;34.13;20.40;;;3.50;99.90;;;;;;10463733;28;20313;-85
2023/01/24 04:22:45;;;;;;;29.40;20.17;;;3.80;99.90;;;;;;10494053;28;20303;-85
2023/01/24 04:27:48;;;;;;;26.40;17.37;;;3.90;99.90;;;;;;10494146;28;20329;-86
2023/01/24 04:32:58;;;;;;;31.57;18.77;;;3.50;99.90;;;;;;10479660;28;20299;-86
2023/01/24 04:38:03;;;;;;;28.47;18.87;;;4.30;99.90;;;;;;10451790;28;20231;-86
2023/01/24 04:43:24;;;;;;;25.00;15.77;;;3.80;99.90;;;;;;10453987;28;20651;-85
2023/01/24 04:48:27;;;;;;;17.20;11.70;;;3.50;99.90;;;;;;10434785;28;20294;-85
2023/01/24 04:53:30;;;;;;;24.80;16.67;;;3.80;99.90;;;;;;10452681;28;20203;-86
2023/01/24 04:58:35;;;;;;;30.10;18.57;;;3.90;99.90;;;;;;10468998;28;20266;-85
2023/01/24 05:03:39;;;;;;;35.03;25.27;;;4.10;99.90;;;;;;10473154;28;20234;-85
2023/01/24 05:08:42;;;;;;;28.87;19.03;;;3.70;99.90;;;;;;10492495;28;20324;-87
2023/01/24 05:13:45;;;;;;;30.67;20.50;;;3.60;99.90;;;;;;10441377;28;20780;-87
2023/01/24 05:18:47;;;;;;;26.33;16.50;;;3.10;99.90;;;;;;10450339;28;20233;-89
2023/01/24 05:23:53;;;;;;;28.50;18.13;;;3.00;99.90;;;;;;10466669;28;20595;-89
2023/01/24 05:28:58;;;;;;;31.93;18.00;;;3.60;99.90;;;;;;10433061;28;20258;-88
2023/01/24 05:34:01;;;;;;;25.13;15.33;;;4.30;99.90;;;;;;10432854;28;20222;-89
2023/01/24 05:39:03;;;;;;;46.43;30.70;;;4.00;99.90;;;;;;10450240;28;20230;-89
2023/01/24 05:44:09;;;;;;;40.77;27.00;;;2.70;99.90;;;;;;10449782;28;20270;-89
2023/01/24 05:49:14;;;;;;;37.50;26.47;;;2.50;99.90;;;;;;10433568;28;20301;-89
2023/01/24 05:54:19;;;;;;;33.57;21.13;;;2.20;99.90;;;;;;10430865;28;20285;-91
2023/01/24 05:59:37;;;;;;;36.40;22.33;;;3.00;99.90;;;;;;10453851;28;20281;-90
2023/01/24 06:04:41;;;;;;;32.73;21.07;;;3.40;99.90;;;;;;10448593;28;20234;-90
2023/01/24 06:09:44;;;;;;;23.27;15.90;;;3.30;99.90;;;;;;10431485;28;20300;-90
2023/01/24 06:14:47;;;;;;;29.00;19.20;;;4.10;99.90;;;;;;10443919;28;20335;-89
2023/01/24 06:19:49;;;;;;;23.67;16.20;;;5.10;99.90;;;;;;10444269;28;20298;-88
2023/01/24 06:24:54;;;;;;;30.13;20.57;;;5.10;99.90;;;;;;10410435;28;20302;-87
2023/01/24 06:30:02;;;;;;;38.63;23.90;;;4.30;99.90;;;;;;10445640;28;20327;-88
2023/01/24 06:35:17;;;;;;;36.90;24.37;;;3.80;99.90;;;;;;10447751;28;20239;-87
2023/01/24 06:40:24;;;;;;;41.57;23.90;;;3.00;99.90;;;;;;10444465;28;20235;-88
2023/01/24 06:45:27;;;;;;;41.70;25.70;;;2.20;99.90;;;;;;10446129;28;20749;-87
2023/01/24 06:50:32;;;;;;;36.17;23.47;;;2.50;99.90;;;;;;10446178;28;20337;-87
2023/01/24 06:55:35;;;;;;;36.63;23.13;;;3.20;99.90;;;;;;10455892;28;20695;-87
2023/01/24 07:00:37;;;;;;;41.80;24.33;;;2.90;99.90;;;;;;10482657;28;20681;-87
2023/01/24 07:05:40;;;;;;;44.83;26.73;;;2.30;99.90;;;;;;10416288;28;20269;-89
2023/01/24 07:10:43;;;;;;;37.93;24.03;;;1.90;99.90;;;;;;10447277;28;20296;-90
2023/01/24 07:15:45;;;;;;;45.03;27.30;;;2.20;99.90;;;;;;10445590;28;20289;-91
2023/01/24 07:20:48;;;;;;;39.40;26.17;;;2.80;99.90;;;;;;10447952;28;20309;-90
2023/01/24 07:25:52;;;;;;;39.47;24.17;;;3.00;99.90;;;;;;10466326;28;20226;-91
2023/01/24 07:30:55;;;;;;;21.53;14.37;;;3.50;99.90;;;;;;10480386;28;20800;-91
2023/01/24 07:35:58;;;;;;;43.30;29.20;;;4.00;99.90;;;;;;10437121;28;20738;-91
2023/01/24 07:41:09;;;;;;;50.83;31.83;;;4.00;99.90;;;;;;10445037;28;20697;-88
2023/01/24 07:46:12;;;;;;;47.53;29.83;;;1.70;99.90;;;;;;10445668;28;20610;-88
2023/01/24 07:51:14;;;;;;;38.60;19.30;;;1.10;99.90;;;;;;10450099;28;20275;-88
2023/01/24 07:56:17;;;;;;;33.73;19.87;;;1.00;99.90;;;;;;10453863;28;20261;-87
2023/01/24 08:01:27;;;;;;;48.07;26.97;;;4.10;99.90;;;;;;10451369;28;20296;-87
2023/01/24 08:06:29;;;;;;;44.90;26.73;;;4.10;99.90;;;;;;10453673;28;20842;-87
2023/01/24 08:11:32;;;;;;;37.33;21.03;;;3.40;99.90;;;;;;10453859;28;20254;-87
2023/01/24 08:16:35;;;;;;;37.40;22.13;;;3.80;99.90;;;;;;10435130;28;20316;-88
2023/01/24 08:21:38;;;;;;;52.27;33.33;;;4.50;99.90;;;;;;10478417;28;20759;-87
2023/01/24 08:26:40;;;;;;;46.80;28.47;;;3.90;99.90;;;;;;10434688;28;20706;-88
2023/01/24 08:31:43;;;;;;;42.27;23.93;;;3.60;99.90;;;;;;10453533;28;20685;-87
2023/01/24 08:36:46;;;;;;;38.37;23.03;;;3.70;99.90;;;;;;10434761;28;20672;-87
2023/01/24 08:41:48;;;;;;;26.93;15.97;;;4.10;99.90;;;;;;10434342;28;20751;-87
2023/01/24 08:46:51;;;;;;;42.83;26.07;;;4.90;99.90;;;;;;10473021;28;20280;-87
2023/01/24 08:51:58;;;;;;;37.53;23.97;;;5.90;99.90;;;;;;10482270;28;20718;-87
2023/01/24 08:57:06;;;;;;;42.67;26.60;;;5.30;99.90;;;;;;10492957;28;20234;-83
2023/01/24 09:02:13;;;;;;;39.57;24.23;;;5.20;99.90;;;;;;10458933;28;20231;-90
2023/01/24 09:07:16;;;;;;;38.20;23.37;;;5.10;99.90;;;;;;10449836;28;20234;-88
2023/01/24 09:12:19;;;;;;;36.23;21.50;;;4.30;99.90;;;;;;10451053;28;20238;-88
2023/01/24 09:17:22;;;;;;;38.00;23.43;;;4.60;99.90;;;;;;10448452;28;20682;-88
2023/01/24 09:22:24;;;;;;;34.57;22.07;;;4.40;99.90;;;;;;10457592;28;20291;-87
2023/01/24 09:27:27;;;;;;;38.50;23.63;;;4.50;99.90;;;;;;10431479;28;20248;-88
2023/01/24 09:32:30;;;;;;;28.87;18.50;;;5.10;99.90;;;;;;10466199;28;20233;-88
2023/01/24 09:37:32;;;;;;;36.97;20.90;;;5.10;99.90;;;;;;10448094;28;20231;-88
2023/01/24 09:42:41;;;;;;;41.70;23.87;;;5.60;99.90;;;;;;10452368;28;20305;-88
2023/01/24 09:47:51;;;;;;;29.73;19.93;;;5.80;99.90;;;;;;10453881;28;20304;-89
2023/01/24 09:52:56;;;;;;;36.23;22.37;;;5.40;99.90;;;;;;10438418;28;20874;-88
2023/01/24 09:58:06;;;;;;;40.33;23.23;;;6.10;99.90;;;;;;10447295;28;20283;-88
2023/01/24 10:03:21;;;;;;;36.63;22.43;;;6.50;99.90;;;;;;10447380;28;20235;-89
2023/01/24 10:09:01;;;;;;;35.70;20.77;;;5.80;99.90;;;;;;10434005;28;20262;-88
2023/01/24 10:14:11;;;;;;;30.27;18.00;;;6.60;99.90;;;;;;10434508;28;21319;-88
2023/01/24 10:19:39;;;;;;;27.47;17.80;;;6.70;99.90;;;;;;10447362;28;20242;-88
2023/01/24 10:24:52;;;;;;;42.40;23.57;;;7.10;99.90;;;;;;10447705;28;20235;-88
2023/01/24 10:30:00;;;;;;;38.80;23.60;;;6.10;99.90;;;;;;10481792;28;20983;-88
2023/01/24 10:35:13;;;;;;;34.80;20.53;;;5.50;99.90;;;;;;10441235;28;20276;-88
2023/01/24 10:40:16;;;;;;;33.90;19.30;;;5.60;99.90;;;;;;10426211;28;20261;-88
2023/01/24 10:45:45;;;;;;;33.57;21.10;;;5.40;99.90;;;;;;10436693;28;20668;-88
2023/01/24 10:50:48;;;;;;;32.80;19.77;;;5.70;99.90;;;;;;10446812;28;20305;-89
2023/01/24 10:56:00;;;;;;;28.90;17.33;;;6.00;99.90;;;;;;10446969;28;20314;-88
2023/01/24 11:01:17;;;;;;;29.63;16.80;;;6.60;99.90;;;;;;10434205;28;20235;-88
2023/01/24 11:06:33;;;;;;;27.67;17.43;;;6.10;99.90;;;;;;10438566;28;20304;-87
2023/01/24 11:11:45;;;;;;;28.83;18.30;;;6.30;99.90;;;;;;10443591;28;20249;-88
2023/01/24 11:16:52;;;;;;;27.23;18.63;;;7.30;99.90;;;;;;10442440;28;20265;-88
2023/01/24 11:21:58;;;;;;;22.07;14.80;;;8.10;99.90;;;;;;10410893;28;20230;-89
2023/01/24 11:27:16;;;;;;;29.63;17.17;;;7.30;99.90;;;;;;10452457;28;20243;-88
2023/01/24 11:32:37;;;;;;;25.47;17.40;;;7.30;99.90;;;;;;10460967;28;20311;-88
2023/01/24 11:37:48;;;;;;;25.87;16.30;;;6.20;99.90;;;;;;10455635;28;20226;-89
2023/01/24 11:42:58;;;;;;;22.77;15.37;;;6.70;99.90;;;;;;10447228;28;20307;-87
2023/01/24 11:48:19;;;;;;;27.33;17.00;;;6.80;99.90;;;;;;10451246;28;20250;-86
2023/01/24 11:54:16;;;;;;;21.47;15.13;;;6.20;99.90;;;;;;10469482;28;20242;-87
2023/01/24 11:59:55;;;;;;;21.57;13.90;;;6.20;99.90;;;;;;10295273;28;20277;-86
2023/01/24 12:05:18;;;;;;;24.47;16.20;;;5.90;99.90;;;;;;10292911;28;20241;-87
2023/01/24 12:10:44;;;;;;;29.07;16.87;;;6.60;99.90;;;;;;10286096;28;20735;-87
2023/01/24 12:16:17;;;;;;;23.90;16.33;;;5.80;99.90;;;;;;10285739;28;20340;-87
2023/01/24 12:21:21;;;;;;;20.87;14.97;;;5.40;99.90;;;;;;10281307;28;20298;-87
2023/01/24 12:26:26;;;;;;;19.77;13.93;;;6.30;99.90;;;;;;10279949;28;20899;-86
2023/01/24 12:31:47;;;;;;;20.90;14.80;;;6.80;99.90;;;;;;10345609;28;20244;-86
2023/01/24 12:37:02;;;;;;;22.27;16.10;;;7.90;99.90;;;;;;10436998;28;20288;-87
2023/01/24 12:42:15;;;;;;;28.87;17.27;;;6.80;99.90;;;;;;10449686;28;20244;-86
2023/01/24 12:47:33;;;;;;;21.17;14.17;;;6.50;99.90;;;;;;10450427;28;20250;-86
2023/01/24 12:52:45;;;;;;;19.23;13.47;;;5.90;99.90;;;;;;10449150;28;20269;-87
2023/01/24 12:58:16;;;;;;;19.30;14.70;;;6.30;99.90;;;;;;10415606;28;20281;-86
2023/01/24 13:03:56;;;;;;;23.33;16.07;;;5.80;99.90;;;;;;10466841;28;20691;-87
2023/01/24 13:09:21;;;;;;;22.57;13.33;;;6.00;99.90;;;;;;10415739;28;20251;-86
2023/01/24 13:14:27;;;;;;;22.00;14.23;;;5.70;99.90;;;;;;10463668;28;20275;-86
2023/01/24 13:19:53;;;;;;;20.37;13.87;;;4.50;99.90;;;;;;10450553;28;20281;-86
2023/01/24 13:25:05;;;;;;;20.07;13.63;;;4.20;99.90;;;;;;10447305;28;20316;-86
2023/01/24 13:30:26;;;;;;;17.90;12.27;;;4.50;99.90;;;;;;10440790;28;20255;-88
2023/01/24 13:35:30;;;;;;;21.23;13.53;;;4.20;99.90;;;;;;10449610;28;20292;-88
2023/01/24 13:40:35;;;;;;;16.83;13.10;;;4.80;99.90;;;;;;10448909;28;20250;-87
2023/01/24 13:45:40;;;;;;;19.30;14.33;;;5.20;99.90;;;;;;10443663;28;20228;-87
2023/01/24 13:50:43;;;;;;;16.60;10.40;;;5.60;99.90;;;;;;10434747;28;20286;-87
2023/01/24 13:56:01;;;;;;;17.23;12.53;;;4.60;99.90;;;;;;10432198;28;20275;-87
2023/01/24 14:01:04;;;;;;;21.20;13.33;;;4.30;99.90;;;;;;10441562;28;20228;-87
2023/01/24 14:06:13;;;;;;;17.43;13.07;;;3.80;99.90;;;;;;10424764;28;20276;-87
2023/01/24 14:11:22;;;;;;;19.63;13.53;;;3.80;99.90;;;;;;10445451;28;20250;-87
2023/01/24 14:16:27;;;;;;;21.03;13.47;;;4.00;99.90;;;;;;10449955;28;20309;-87
2023/01/24 14:21:44;;;;;;;20.90;13.90;;;3.80;99.90;;;;;;10448365;28;20630;-86
2023/01/24 14:26:52;;;;;;;18.40;13.60;;;3.30;99.90;;;;;;10427028;28;20288;-87
2023/01/24 14:31:55;;;;;;;23.63;16.33;;;3.80;99.90;;;;;;10447326;28;20254;-87
2023/01/24 14:37:03;;;;;;;23.13;16.47;;;3.70;99.90;;;;;;10446787;28;20279;-88
2023/01/24 14:42:12;;;;;;;21.77;14.97;;;3.60;99.90;;;;;;10439539;28;20284;-88
2023/01/24 14:47:21;;;;;;;24.60;16.03;;;3.20;99.90;;;;;;10424455;28;20234;-89
2023/01/24 14:52:30;;;;;;;19.60;13.93;;;3.20;99.90;;;;;;10434990;28;20276;-88
2023/01/24 14:57:33;;;;;;;22.63;15.57;;;3.60;99.90;;;;;;10444114;28;20650;-88
2023/01/24 15:02:36;;;;;;;27.20;17.03;;;3.90;99.90;;;;;;10440170;28;20284;-89
2023/01/24 15:07:45;;;;;;;24.47;16.07;;;3.50;99.90;;;;;;10420010;28;20305;-90
2023/01/24 15:12:53;;;;;;;25.37;15.70;;;3.50;99.90;;;;;;10453491;28;20271;-89
2023/01/24 15:18:19;;;;;;;26.30;16.70;;;3.10;99.90;;;;;;10454784;28;20276;-89
2023/01/24 15:23:27;;;;;;;25.70;18.10;;;3.20;99.90;;;;;;10473633;28;20236;-89
2023/01/24 15:28:30;;;;;;;27.53;18.40;;;3.10;99.90;;;;;;10471290;28;20230;-89
2023/01/24 15:33:42;;;;;;;25.13;15.77;;;2.50;99.90;;;;;;10456839;28;20712;-89
2023/01/24 15:38:52;;;;;;;27.43;18.97;;;3.20;99.90;;;;;;9753775;28;9999987;-88
2023/01/24 15:44:06;;;;;;;28.30;18.63;;;3.00;99.90;;;;;;10466718;28;20239;-88
2023/01/24 15:49:24;;;;;;;33.33;22.43;;;2.80;99.90;;;;;;10434899;28;20306;-89
2023/01/24 15:54:37;;;;;;;48.70;34.43;;;2.80;99.90;;;;;;10453686;28;20232;-89
2023/01/24 15:59:44;;;;;;;33.70;21.47;;;2.70;99.90;;;;;;10452362;28;20238;-88
2023/01/24 16:04:47;;;;;;;34.90;21.87;;;2.30;99.90;;;;;;10439064;28;20281;-89
2023/01/24 16:09:53;;;;;;;31.90;22.23;;;2.10;99.90;;;;;;10448681;28;21050;-88
2023/01/24 16:14:55;;;;;;;33.60;20.87;;;2.20;99.90;;;;;;10465391;28;20266;-87
2023/01/24 16:20:31;;;;;;;28.03;17.80;;;2.20;99.90;;;;;;10451212;28;20300;-87
2023/01/24 16:25:35;;;;;;;25.03;17.80;;;2.40;99.90;;;;;;10445150;28;20651;-87
2023/01/24 16:30:38;;;;;;;44.00;26.03;;;2.20;99.90;;;;;;10441946;28;20297;-87
2023/01/24 16:35:40;;;;;;;40.33;23.13;;;2.20;99.90;;;;;;10449152;28;20303;-87
2023/01/24 16:40:43;;;;;;;28.30;19.43;;;2.30;99.90;;;;;;10444736;28;20239;-87
2023/01/24 16:45:48;;;;;;;33.50;18.57;;;2.30;99.90;;;;;;10452253;28;20269;-88
2023/01/24 16:50:51;;;;;;;27.87;18.23;;;2.20;99.90;;;;;;10453054;28;20979;-88
2023/01/24 16:55:56;;;;;;;44.00;24.37;;;2.10;99.90;;;;;;10435099;28;20239;-89
2023/01/24 17:00:59;;;;;;;36.27;22.37;;;2.20;99.90;;;;;;10450774;28;20293;-89
2023/01/24 17:06:06;;;;;;;40.00;23.67;;;2.30;99.90;;;;;;10456040;28;20232;-90
2023/01/24 17:11:10;;;;;;;47.37;28.10;;;2.40;99.90;;;;;;10439218;28;20259;-89
2023/01/24 17:16:14;;;;;;;42.93;25.97;;;2.50;99.90;;;;;;10460677;28;20722;-89
2023/01/24 17:21:16;;;;;;;47.20;28.57;;;3.00;99.90;;;;;;10441289;28;20240;-89
2023/01/24 17:26:19;;;;;;;67.67;35.63;;;2.80;99.90;;;;;;10449981;28;20655;-89
2023/01/24 17:31:22;;;;;;;48.67;29.43;;;2.40;99.90;;;;;;10431483;28;20296;-89
2023/01/24 17:36:25;;;;;;;46.23;27.03;;;2.20;99.90;;;;;;10450905;28;20320;-89
2023/01/24 17:41:28;;;;;;;71.00;37.37;;;1.90;99.90;;;;;;10449063;28;20243;-89
2023/01/24 17:46:31;;;;;;;82.87;41.83;;;2.30;99.90;;;;;;10448018;28;20235;-89
2023/01/24 17:51:35;;;;;;;53.53;30.57;;;2.20;99.90;;;;;;10434141;28;20314;-90
2023/01/24 17:56:39;;;;;;;46.27;27.37;;;2.10;99.90;;;;;;10447113;28;20223;-89
2023/01/24 18:01:41;;;;;;;42.67;26.10;;;2.10;99.90;;;;;;10442458;28;21026;-89
2023/01/24 18:06:44;;;;;;;66.73;38.70;;;2.10;99.90;;;;;;10436211;28;20231;-90
2023/01/24 18:11:47;;;;;;;55.30;33.30;;;2.10;99.90;;;;;;10449775;28;20836;-89
2023/01/24 18:16:51;;;;;;;63.37;35.47;;;2.00;99.90;;;;;;10445547;28;20262;-89
2023/01/24 18:21:54;;;;;;;47.43;27.80;;;2.20;99.90;;;;;;10449978;28;20238;-90
2023/01/24 18:26:57;;;;;;;47.63;27.47;;;2.10;99.90;;;;;;10466437;28;20233;-88
2023/01/24 18:32:00;;;;;;;39.60;24.07;;;2.10;99.90;;;;;;10491082;28;20288;-87
2023/01/24 18:37:04;;;;;;;43.43;27.90;;;2.10;99.90;;;;;;10459434;28;20238;-88
2023/01/24 18:42:07;;;;;;;42.83;25.00;;;1.90;99.90;;;;;;10448683;28;20234;-88
2023/01/24 18:47:10;;;;;;;30.03;19.33;;;2.50;99.90;;;;;;10447934;28;20300;-88
2023/01/24 18:52:13;;;;;;;33.97;21.07;;;4.20;99.90;;;;;;10446551;28;20323;-87
2023/01/24 18:57:16;;;;;;;42.77;26.00;;;4.90;99.90;;;;;;10429587;28;20238;-88
2023/01/24 19:02:20;;;;;;;42.70;26.97;;;3.60;99.90;;;;;;10448511;28;20631;-88
2023/01/24 19:07:23;;;;;;;47.90;28.77;;;2.70;99.90;;;;;;10445907;28;20286;-88
2023/01/24 19:12:27;;;;;;;43.00;27.00;;;2.40;99.90;;;;;;10456198;28;20981;-87
2023/01/24 19:17:31;;;;;;;40.30;23.57;;;2.40;99.90;;;;;;9748455;28;10000691;-88
2023/01/24 19:22:34;;;;;;;41.77;25.77;;;2.20;99.90;;;;;;10452286;28;20242;-89
2023/01/24 19:27:38;;;;;;;47.83;27.87;;;2.40;99.90;;;;;;10438532;28;20243;-89
2023/01/24 19:32:41;;;;;;;51.03;30.80;;;2.10;99.90;;;;;;10444811;28;20259;-89
2023/01/24 19:37:44;;;;;;;37.50;24.27;;;2.00;99.90;;;;;;10426651;28;20285;-89
2023/01/24 19:42:48;;;;;;;49.90;29.23;;;2.50;99.90;;;;;;10443960;28;20292;-89
2023/01/24 19:47:53;;;;;;;66.23;38.03;;;2.10;99.90;;;;;;10426591;28;20231;-89
2023/01/24 19:52:56;;;;;;;47.30;30.00;;;2.70;99.90;;;;;;10459852;28;20318;-88
2023/01/24 19:57:59;;;;;;;59.70;33.47;;;1.70;99.90;;;;;;10452594;28;20700;-89
2023/01/24 20:03:02;;;;;;;52.07;29.90;;;1.60;99.90;;;;;;10433887;28;20292;-89
2023/01/24 20:08:06;;;;;;;54.10;30.70;;;1.50;99.90;;;;;;10451388;28;20235;-88
2023/01/24 20:13:15;;;;;;;52.80;33.00;;;1.30;99.90;;;;;;10448799;28;20254;-88
2023/01/24 20:18:33;;;;;;;47.47;28.17;;;1.20;99.90;;;;;;10469145;28;20394;-88
2023/01/24 20:23:38;;;;;;;52.23;28.87;;;1.70;99.90;;;;;;10451210;28;20284;-88
2023/01/24 20:28:42;;;;;;;44.17;28.67;;;1.80;99.90;;;;;;10449504;28;20289;-87
2023/01/24 20:33:48;;;;;;;49.53;30.07;;;1.80;99.90;;;;;;10417790;28;20309;-88
2023/01/24 20:38:54;;;;;;;56.30;35.43;;;2.40;99.90;;;;;;10450032;28;20651;-88
2023/01/24 20:43:57;;;;;;;48.50;30.60;;;2.40;99.90;;;;;;10449390;28;20643;-88
2023/01/24 20:49:05;;;;;;;46.30;27.43;;;2.50;99.90;;;;;;10449644;28;20243;-88
2023/01/24 20:54:10;;;;;;;46.37;29.10;;;2.80;99.90;;;;;;10433560;28;20309;-88
2023/01/24 20:59:13;;;;;;;49.23;30.70;;;2.70;99.90;;;;;;10432979;28;20296;-89
2023/01/24 21:04:16;;;;;;;45.47;28.70;;;2.80;99.90;;;;;;10433670;28;20280;-89
2023/01/24 21:09:20;;;;;;;45.53;30.50;;;;;;;;;;10448304;28;20617;-89
2023/01/24 21:14:24;;;;;;;54.13;32.67;;;3.40;99.90;;;;;;10451919;28;20301;-88
2023/01/24 21:19:27;;;;;;;51.03;33.20;;;2.90;99.90;;;;;;10452069;28;20282;-89
2023/01/24 21:24:30;;;;;;;39.43;24.97;;;2.70;99.90;;;;;;10449943;28;20293;-87
2023/01/24 21:29:35;;;;;;;51.50;31.70;;;2.40;99.90;;;;;;10441321;28;20253;-86
2023/01/24 21:34:39;;;;;;;44.87;28.13;;;2.30;99.90;;;;;;10450401;28;20269;-86
2023/01/24 21:39:43;;;;;;;53.23;33.10;;;2.30;99.90;;;;;;10450526;28;20214;-89
2023/01/24 21:44:46;;;;;;;58.10;33.63;;;2.40;99.90;;;;;;10463622;28;20292;-88
2023/01/24 21:49:48;;;;;;;52.33;31.03;;;2.10;99.90;;;;;;10445783;28;20228;-88
2023/01/24 21:54:52;;;;;;;56.00;34.70;;;2.20;99.90;;;;;;10446907;28;20324;-88
2023/01/24 21:59:55;;;;;;;53.20;30.63;;;1.90;99.90;;;;;;10432156;28;20296;-87
2023/01/24 22:04:59;;;;;;;43.63;27.77;;;1.80;99.90;;;;;;10415142;28;20237;-87
2023/01/24 22:10:03;;;;;;;54.00;31.93;;;2.10;99.90;;;;;;10446983;28;20742;-88
2023/01/24 22:15:06;;;;;;;53.90;32.83;;;2.10;99.90;;;;;;10469862;28;20269;-88
2023/01/24 22:20:16;;;;;;;52.40;30.87;;;1.90;99.90;;;;;;10431722;28;20262;-88
2023/01/24 22:25:34;;;;;;;46.93;29.37;;;1.90;99.90;;;;;;10448285;28;20261;-88
2023/01/24 22:30:37;;;;;;;47.27;29.53;;;1.80;99.90;;;;;;10464289;28;20249;-87
2023/01/24 22:35:41;;;;;;;44.80;29.50;;;1.90;99.90;;;;;;10423560;28;20231;-88
2023/01/24 22:40:44;;;;;;;52.63;31.67;;;2.20;99.90;;;;;;10438331;28;20231;-87
2023/01/24 22:45:46;;;;;;;74.60;39.83;;;2.20;99.90;;;;;;10448441;28;20377;-88
2023/01/24 22:50:49;;;;;;;50.97;31.63;;;2.00;99.90;;;;;;10448778;28;20273;-87
2023/01/24 22:55:53;;;;;;;48.80;30.80;;;2.20;99.90;;;;;;10447103;28;20246;-87
2023/01/24 23:01:03;;;;;;;50.10;29.17;;;3.10;99.90;;;;;;10448315;28;20234;-87
2023/01/24 23:06:08;;;;;;;52.77;31.90;;;2.70;99.90;;;;;;10448404;28;20265;-87
2023/01/24 23:11:12;;;;;;;53.53;32.57;;;2.60;99.90;;;;;;10460030;28;20267;-87
2023/01/24 23:16:15;;;;;;;58.87;32.33;;;2.40;99.90;;;;;;10465175;28;20705;-87
2023/01/24 23:21:28;;;;;;;54.03;32.07;;;2.10;99.90;;;;;;10453899;28;20301;-88
2023/01/24 23:26:31;;;;;;;53.47;33.97;;;2.70;99.90;;;;;;10450496;28;20246;-87
2023/01/24 23:31:34;;;;;;;54.57;32.80;;;3.60;99.90;;;;;;10463309;28;20623;-88
2023/01/24 23:36:36;;;;;;;70.23;38.17;;;2.90;99.90;;;;;;10459996;28;20240;-88
2023/01/24 23:41:39;;;;;;;65.30;38.30;;;3.10;99.90;;;;;;10454029;28;20293;-87
2023/01/24 23:46:41;;;;;;;55.87;35.47;;;2.40;99.90;;;;;;10437829;28;20227;-87
2023/01/24 23:51:45;;;;;;;37.90;23.83;;;2.30;99.90;;;;;;10456328;28;20311;-87
2023/01/24 23:56:48;;;;;;;59.17;36.50;;;2.80;99.90;;;;;;10455142;28;20234;-87
